sensor_id;sensor_type;location;lat;lon;timestamp;pressure;altitude;pressure_sealevel;temperature;humidity
46408;BME280;32110;45.724;21.276;2023-08-01T00:01:29;100074.00;;;17.31;nan
46408;BME280;32110;45.724;21.276;2023-08-01T00:03:54;100076.91;;;17.30;nan
46408;BME280;32110;45.724;21.276;2023-08-01T00:06:20;100053.88;;;17.15;nan
46408;BME280;32110;45.724;21.276;2023-08-01T00:08:47;100073.25;;;17.20;nan
46408;BME280;32110;45.724;21.276;2023-08-01T00:11:12;100071.44;;;17.11;nan
46408;BME280;32110;45.724;21.276;2023-08-01T00:13:39;100074.69;;;17.08;nan
46408;BME280;32110;45.724;21.276;2023-08-01T00:16:05;100081.03;;;17.07;nan
46408;BME280;32110;45.724;21.276;2023-08-01T00:18:30;100070.22;;;16.98;nan
46408;BME280;32110;45.724;21.276;2023-08-01T00:20:56;100081.59;;;17.04;nan
46408;BME280;32110;45.724;21.276;2023-08-01T00:23:21;100046.88;;;16.85;nan
46408;BME280;32110;45.724;21.276;2023-08-01T00:25:47;100068.31;;;17.04;nan
46408;BME280;32110;45.724;21.276;2023-08-01T00:28:21;100047.88;;;16.94;nan
46408;BME280;32110;45.724;21.276;2023-08-01T00:30:46;100059.56;;;16.98;nan
46408;BME280;32110;45.724;21.276;2023-08-01T00:33:12;100059.00;;;17.01;nan
46408;BME280;32110;45.724;21.276;2023-08-01T00:35:38;100047.38;;;16.92;nan
46408;BME280;32110;45.724;21.276;2023-08-01T00:38:04;100050.03;;;16.92;nan
46408;BME280;32110;45.724;21.276;2023-08-01T00:40:30;100054.25;;;16.98;nan
46408;BME280;32110;45.724;21.276;2023-08-01T00:42:56;100052.41;;;16.93;nan
46408;BME280;32110;45.724;21.276;2023-08-01T00:45:23;100064.38;;;16.96;nan
46408;BME280;32110;45.724;21.276;2023-08-01T00:47:50;100058.53;;;16.94;nan
46408;BME280;32110;45.724;21.276;2023-08-01T00:50:16;100061.19;;;16.94;nan
46408;BME280;32110;45.724;21.276;2023-08-01T00:52:45;100061.47;;;16.87;nan
46408;BME280;32110;45.724;21.276;2023-08-01T00:55:11;100033.13;;;16.67;nan
46408;BME280;32110;45.724;21.276;2023-08-01T00:57:36;100064.13;;;16.87;nan
46408;BME280;32110;45.724;21.276;2023-08-01T01:00:01;100044.50;;;16.73;nan
46408;BME280;32110;45.724;21.276;2023-08-01T01:02:27;100036.56;;;16.68;nan
46408;BME280;32110;45.724;21.276;2023-08-01T01:04:52;100048.78;;;16.69;nan
46408;BME280;32110;45.724;21.276;2023-08-01T01:07:18;100049.06;;;16.67;nan
46408;BME280;32110;45.724;21.276;2023-08-01T01:09:44;100050.69;;;16.63;nan
46408;BME280;32110;45.724;21.276;2023-08-01T01:12:09;100049.38;;;16.61;nan
46408;BME280;32110;45.724;21.276;2023-08-01T01:14:35;100024.72;;;16.50;nan
46408;BME280;32110;45.724;21.276;2023-08-01T01:17:00;100028.16;;;16.50;nan
46408;BME280;32110;45.724;21.276;2023-08-01T01:19:25;100020.72;;;16.42;nan
46408;BME280;32110;45.724;21.276;2023-08-01T01:22:16;100030.06;;;16.40;nan
46408;BME280;32110;45.724;21.276;2023-08-01T01:24:42;99988.72;;;16.13;nan
46408;BME280;32110;45.724;21.276;2023-08-01T01:27:08;100022.13;;;16.29;nan
46408;BME280;32110;45.724;21.276;2023-08-01T01:29:34;100007.31;;;16.13;nan
46408;BME280;32110;45.724;21.276;2023-08-01T01:32:00;100020.38;;;16.04;nan
46408;BME280;32110;45.724;21.276;2023-08-01T01:34:27;100013.72;;;16.02;nan
46408;BME280;32110;45.724;21.276;2023-08-01T01:36:53;100022.22;;;15.99;nan
46408;BME280;32110;45.724;21.276;2023-08-01T01:39:18;100026.47;;;15.94;nan
46408;BME280;32110;45.724;21.276;2023-08-01T01:41:43;100020.38;;;15.89;nan
46408;BME280;32110;45.724;21.276;2023-08-01T01:44:09;100021.75;;;15.81;nan
46408;BME280;32110;45.724;21.276;2023-08-01T01:46:34;100013.00;;;15.76;nan
46408;BME280;32110;45.724;21.276;2023-08-01T01:49:00;100003.72;;;15.73;nan
46408;BME280;32110;45.724;21.276;2023-08-01T01:51:26;100016.69;;;15.74;nan
46408;BME280;32110;45.724;21.276;2023-08-01T01:53:52;100008.19;;;15.62;nan
46408;BME280;32110;45.724;21.276;2023-08-01T01:56:17;100014.03;;;15.64;nan
46408;BME280;32110;45.724;21.276;2023-08-01T01:58:42;100009.78;;;15.58;nan
46408;BME280;32110;45.724;21.276;2023-08-01T02:01:08;100014.03;;;15.49;nan
46408;BME280;32110;45.724;21.276;2023-08-01T02:03:33;100016.69;;;15.49;nan
46408;BME280;32110;45.724;21.276;2023-08-01T02:05:59;100019.63;;;15.47;nan
46408;BME280;32110;45.724;21.276;2023-08-01T02:08:24;100011.41;;;15.44;nan
46408;BME280;32110;45.724;21.276;2023-08-01T02:10:49;99994.69;;;15.33;nan
46408;BME280;32110;45.724;21.276;2023-08-01T02:13:16;100004.53;;;15.32;nan
46408;BME280;32110;45.724;21.276;2023-08-01T02:15:41;100011.16;;;15.35;nan
46408;BME280;32110;45.724;21.276;2023-08-01T02:18:07;99994.72;;;15.28;nan
46408;BME280;32110;45.724;21.276;2023-08-01T02:20:32;100000.53;;;15.30;nan
46408;BME280;32110;45.724;21.276;2023-08-01T02:22:57;100016.19;;;15.37;nan
46408;BME280;32110;45.724;21.276;2023-08-01T02:25:23;100004.50;;;15.27;nan
46408;BME280;32110;45.724;21.276;2023-08-01T02:27:48;100012.47;;;15.32;nan
46408;BME280;32110;45.724;21.276;2023-08-01T02:30:13;100005.03;;;15.19;nan
46408;BME280;32110;45.724;21.276;2023-08-01T02:32:39;99994.16;;;15.05;nan
46408;BME280;32110;45.724;21.276;2023-08-01T02:35:05;100025.19;;;15.20;nan
46408;BME280;32110;45.724;21.276;2023-08-01T02:37:30;100005.28;;;15.07;nan
46408;BME280;32110;45.724;21.276;2023-08-01T02:39:55;100007.94;;;14.92;nan
46408;BME280;32110;45.724;21.276;2023-08-01T02:42:21;100020.41;;;14.97;nan
46408;BME280;32110;45.724;21.276;2023-08-01T02:44:46;100014.81;;;14.88;nan
46408;BME280;32110;45.724;21.276;2023-08-01T02:47:11;100025.97;;;14.90;nan
46408;BME280;32110;45.724;21.276;2023-08-01T02:49:37;100025.69;;;14.86;nan
46408;BME280;32110;45.724;21.276;2023-08-01T02:52:02;100019.59;;;14.86;nan
46408;BME280;32110;45.724;21.276;2023-08-01T02:54:28;100007.91;;;14.77;nan
46408;BME280;32110;45.724;21.276;2023-08-01T02:56:53;100016.38;;;14.79;nan
46408;BME280;32110;45.724;21.276;2023-08-01T02:59:18;100011.63;;;14.76;nan
46408;BME280;32110;45.724;21.276;2023-08-01T03:01:44;100001.25;;;14.74;nan
46408;BME280;32110;45.724;21.276;2023-08-01T03:04:09;100011.09;;;14.79;nan
46408;BME280;32110;45.724;21.276;2023-08-01T03:06:37;100009.75;;;14.81;nan
46408;BME280;32110;45.724;21.276;2023-08-01T03:09:03;100011.38;;;14.82;nan
46408;BME280;32110;45.724;21.276;2023-08-01T03:11:33;100017.72;;;14.86;nan
46408;BME280;32110;45.724;21.276;2023-08-01T03:13:58;100018.00;;;14.85;nan
46408;BME280;32110;45.724;21.276;2023-08-01T03:16:24;100021.19;;;14.87;nan
46408;BME280;32110;45.724;21.276;2023-08-01T03:18:49;100019.88;;;14.84;nan
46408;BME280;32110;45.724;21.276;2023-08-01T03:21:14;100007.66;;;14.78;nan
46408;BME280;32110;45.724;21.276;2023-08-01T03:23:40;100010.03;;;14.80;nan
46408;BME280;32110;45.724;21.276;2023-08-01T03:26:05;100015.34;;;14.80;nan
46408;BME280;32110;45.724;21.276;2023-08-01T03:28:31;100001.00;;;14.76;nan
46408;BME280;32110;45.724;21.276;2023-08-01T03:30:56;100022.22;;;14.86;nan
46408;BME280;32110;45.724;21.276;2023-08-01T03:33:22;100022.50;;;14.84;nan
46408;BME280;32110;45.724;21.276;2023-08-01T03:35:47;100016.13;;;14.80;nan
46408;BME280;32110;45.724;21.276;2023-08-01T03:38:12;100025.41;;;14.73;nan
46408;BME280;32110;45.724;21.276;2023-08-01T03:40:38;100025.63;;;14.56;nan
46408;BME280;32110;45.724;21.276;2023-08-01T03:43:03;100017.03;;;14.38;nan
46408;BME280;32110;45.724;21.276;2023-08-01T03:45:30;100010.94;;;14.38;nan
46408;BME280;32110;45.724;21.276;2023-08-01T03:47:55;100021.84;;;14.46;nan
46408;BME280;32110;45.724;21.276;2023-08-01T03:50:21;100019.97;;;14.47;nan
46408;BME280;32110;45.724;21.276;2023-08-01T03:52:46;100015.72;;;14.46;nan
46408;BME280;32110;45.724;21.276;2023-08-01T03:55:11;100023.41;;;14.42;nan
46408;BME280;32110;45.724;21.276;2023-08-01T03:57:37;99988.31;;;14.15;nan
46408;BME280;32110;45.724;21.276;2023-08-01T04:00:05;100023.41;;;14.37;nan
46408;BME280;32110;45.724;21.276;2023-08-01T04:02:31;100032.44;;;14.46;nan
46408;BME280;32110;45.724;21.276;2023-08-01T04:04:56;100025.28;;;14.47;nan
46408;BME280;32110;45.724;21.276;2023-08-01T04:07:21;100025.88;;;14.54;nan
46408;BME280;32110;45.724;21.276;2023-08-01T04:09:48;100023.19;;;14.49;nan
46408;BME280;32110;45.724;21.276;2023-08-01T04:12:14;100019.22;;;14.52;nan
46408;BME280;32110;45.724;21.276;2023-08-01T04:14:39;100027.19;;;14.57;nan
46408;BME280;32110;45.724;21.276;2023-08-01T04:17:04;100034.38;;;14.66;nan
46408;BME280;32110;45.724;21.276;2023-08-01T04:19:30;100023.53;;;14.68;nan
46408;BME280;32110;45.724;21.276;2023-08-01T04:21:55;100027.78;;;14.74;nan
46408;BME280;32110;45.724;21.276;2023-08-01T04:24:21;100034.69;;;14.75;nan
46408;BME280;32110;45.724;21.276;2023-08-01T04:26:50;100034.41;;;14.77;nan
46408;BME280;32110;45.724;21.276;2023-08-01T04:29:15;100018.78;;;14.80;nan
46408;BME280;32110;45.724;21.276;2023-08-01T04:31:43;100022.25;;;14.91;nan
46408;BME280;32110;45.724;21.276;2023-08-01T04:34:08;100029.69;;;15.04;nan
46408;BME280;32110;45.724;21.276;2023-08-01T04:36:33;100022.53;;;15.10;nan
46408;BME280;32110;45.724;21.276;2023-08-01T04:38:59;100018.56;;;15.13;nan
46408;BME280;32110;45.724;21.276;2023-08-01T04:41:24;100039.81;;;15.33;nan
46408;BME280;32110;45.724;21.276;2023-08-01T04:43:50;100026.78;;;15.31;nan
46408;BME280;32110;45.724;21.276;2023-08-01T04:46:15;100020.16;;;15.34;nan
46408;BME280;32110;45.724;21.276;2023-08-01T04:48:41;100027.84;;;15.41;nan
46408;BME280;32110;45.724;21.276;2023-08-01T04:51:06;100023.84;;;15.53;nan
46408;BME280;32110;45.724;21.276;2023-08-01T04:53:31;99997.09;;;15.40;nan
46408;BME280;32110;45.724;21.276;2023-08-01T04:55:57;100037.69;;;15.71;nan
46408;BME280;32110;45.724;21.276;2023-08-01T04:58:22;100034.47;;;15.79;nan
46408;BME280;32110;45.724;21.276;2023-08-01T05:00:47;100032.88;;;15.88;nan
46408;BME280;32110;45.724;21.276;2023-08-01T05:03:13;100021.44;;;15.98;nan
46408;BME280;32110;45.724;21.276;2023-08-01T05:05:38;100024.84;;;16.14;nan
46408;BME280;32110;45.724;21.276;2023-08-01T05:08:04;100025.88;;;16.18;nan
46408;BME280;32110;45.724;21.276;2023-08-01T05:10:29;100055.53;;;16.51;nan
46408;BME280;32110;45.724;21.276;2023-08-01T05:12:54;100033.22;;;16.47;nan
46408;BME280;32110;45.724;21.276;2023-08-01T05:15:20;100015.91;;;16.49;nan
46408;BME280;32110;45.724;21.276;2023-08-01T05:17:45;100023.28;;;16.68;nan
46408;BME280;32110;45.724;21.276;2023-08-01T05:20:11;100022.19;;;16.79;nan
46408;BME280;32110;45.724;21.276;2023-08-01T05:22:36;100020.25;;;16.90;nan
46408;BME280;32110;45.724;21.276;2023-08-01T05:25:01;100009.06;;;16.93;nan
46408;BME280;32110;45.724;21.276;2023-08-01T05:27:28;100005.81;;;17.01;nan
46408;BME280;32110;45.724;21.276;2023-08-01T05:29:54;100011.34;;;17.10;nan
46408;BME280;32110;45.724;21.276;2023-08-01T05:32:19;100009.66;;;17.19;nan
46408;BME280;32110;45.724;21.276;2023-08-01T05:34:45;100012.00;;;17.26;nan
46408;BME280;32110;45.724;21.276;2023-08-01T05:37:10;100016.38;;;17.46;nan
46408;BME280;32110;45.724;21.276;2023-08-01T05:39:35;100017.91;;;17.52;nan
46408;BME280;32110;45.724;21.276;2023-08-01T05:42:01;100013.84;;;17.59;nan
46408;BME280;32110;45.724;21.276;2023-08-01T05:44:26;100016.88;;;17.77;nan
46408;BME280;32110;45.724;21.276;2023-08-01T06:03:49;99958.47;;;18.28;nan
46408;BME280;32110;45.724;21.276;2023-08-01T06:06:15;100006.97;;;18.31;nan
46408;BME280;32110;45.724;21.276;2023-08-01T06:08:40;100002.38;;;18.36;nan
46408;BME280;32110;45.724;21.276;2023-08-01T06:11:06;100004.59;;;18.48;nan
46408;BME280;32110;45.724;21.276;2023-08-01T06:13:31;100006.44;;;18.71;nan
46408;BME280;32110;45.724;21.276;2023-08-01T06:15:56;100004.72;;;18.81;nan
46408;BME280;32110;45.724;21.276;2023-08-01T06:18:22;99968.56;;;18.69;nan
46408;BME280;32110;45.724;21.276;2023-08-01T06:20:47;99998.09;;;18.97;nan
46408;BME280;32110;45.724;21.276;2023-08-01T06:23:13;99986.81;;;19.00;nan
46408;BME280;32110;45.724;21.276;2023-08-01T06:25:38;99981.31;;;19.10;nan
46408;BME280;32110;45.724;21.276;2023-08-01T06:28:04;99991.44;;;19.13;nan
46408;BME280;32110;45.724;21.276;2023-08-01T06:30:29;99988.09;;;19.22;nan
46408;BME280;32110;45.724;21.276;2023-08-01T06:32:54;99990.47;;;19.23;nan
46408;BME280;32110;45.724;21.276;2023-08-01T06:35:20;99989.50;;;19.33;nan
46408;BME280;32110;45.724;21.276;2023-08-01T06:37:46;99987.03;;;19.37;nan
46408;BME280;32110;45.724;21.276;2023-08-01T06:40:11;99991.19;;;19.43;nan
46408;BME280;32110;45.724;21.276;2023-08-01T06:42:37;99988.16;;;19.49;nan
46408;BME280;32110;45.724;21.276;2023-08-01T06:45:02;99988.34;;;19.53;nan
46408;BME280;32110;45.724;21.276;2023-08-01T06:47:28;99939.38;;;19.30;nan
46408;BME280;32110;45.724;21.276;2023-08-01T06:49:53;99991.25;;;19.70;nan
46408;BME280;32110;45.724;21.276;2023-08-01T06:52:19;99983.19;;;19.75;nan
46408;BME280;32110;45.724;21.276;2023-08-01T06:54:44;99981.69;;;19.97;nan
46408;BME280;32110;45.724;21.276;2023-08-01T06:57:10;99926.81;;;20.13;nan
46408;BME280;32110;45.724;21.276;2023-08-01T06:59:35;99920.28;;;20.19;nan
46408;BME280;32110;45.724;21.276;2023-08-01T07:02:01;99931.34;;;20.27;nan
46408;BME280;32110;45.724;21.276;2023-08-01T07:04:26;99919.75;;;20.31;nan
46408;BME280;32110;45.724;21.276;2023-08-01T07:06:52;99926.41;;;20.56;nan
46408;BME280;32110;45.724;21.276;2023-08-01T07:09:17;99922.13;;;20.69;nan
46408;BME280;32110;45.724;21.276;2023-08-01T07:11:42;99894.59;;;20.69;nan
46408;BME280;32110;45.724;21.276;2023-08-01T07:16:33;99931.41;;;20.94;nan
46408;BME280;32110;45.724;21.276;2023-08-01T07:19:01;99934.31;;;21.07;nan
46408;BME280;32110;45.724;21.276;2023-08-01T07:21:27;99925.84;;;21.13;nan
46408;BME280;32110;45.724;21.276;2023-08-01T07:23:54;99929.06;;;21.24;nan
46408;BME280;32110;45.724;21.276;2023-08-01T07:28:44;99910.59;;;21.45;nan
46408;BME280;32110;45.724;21.276;2023-08-01T07:31:10;99875.66;;;21.50;nan
46408;BME280;32110;45.724;21.276;2023-08-01T07:33:35;99970.34;;;21.54;nan
46408;BME280;32110;45.724;21.276;2023-08-01T07:36:01;99897.13;;;21.67;nan
46408;BME280;32110;45.724;21.276;2023-08-01T07:38:27;100002.13;;;21.78;nan
46408;BME280;32110;45.724;21.276;2023-08-01T07:40:54;99926.00;;;21.88;nan
46408;BME280;32110;45.724;21.276;2023-08-01T07:43:19;99924.94;;;21.98;nan
46408;BME280;32110;45.724;21.276;2023-08-01T07:45:45;99967.69;;;22.03;nan
46408;BME280;32110;45.724;21.276;2023-08-01T07:50:36;99919.63;;;22.24;nan
46408;BME280;32110;45.724;21.276;2023-08-01T07:53:01;99914.09;;;22.29;nan
46408;BME280;32110;45.724;21.276;2023-08-01T07:55:27;99875.91;;;22.41;nan
46408;BME280;32110;45.724;21.276;2023-08-01T07:57:52;99926.28;;;22.61;nan
46408;BME280;32110;45.724;21.276;2023-08-01T08:00:17;99938.75;;;22.66;nan
46408;BME280;32110;45.724;21.276;2023-08-01T08:05:11;99903.50;;;22.85;nan
46408;BME280;32110;45.724;21.276;2023-08-01T08:07:37;99887.34;;;22.93;nan
46408;BME280;32110;45.724;21.276;2023-08-01T08:10:05;99927.00;;;23.05;nan
46408;BME280;32110;45.724;21.276;2023-08-01T08:12:31;99923.53;;;23.13;nan
46408;BME280;32110;45.724;21.276;2023-08-01T08:14:57;99904.06;;;23.17;nan
46408;BME280;32110;45.724;21.276;2023-08-01T08:17:22;99945.91;;;23.26;nan
46408;BME280;32110;45.724;21.276;2023-08-01T08:22:13;99916.44;;;23.47;nan
46408;BME280;32110;45.724;21.276;2023-08-01T08:24:38;99931.72;;;23.55;nan
46408;BME280;32110;45.724;21.276;2023-08-01T08:27:04;99888.09;;;23.59;nan
46408;BME280;32110;45.724;21.276;2023-08-01T08:29:31;99902.44;;;23.63;nan
46408;BME280;32110;45.724;21.276;2023-08-01T08:31:57;99900.81;;;23.79;nan
46408;BME280;32110;45.724;21.276;2023-08-01T08:34:22;99885.72;;;23.87;nan
46408;BME280;32110;45.724;21.276;2023-08-01T08:36:47;99890.28;;;23.95;nan
46408;BME280;32110;45.724;21.276;2023-08-01T08:39:15;99944.00;;;24.04;nan
46408;BME280;32110;45.724;21.276;2023-08-01T08:41:47;99946.94;;;24.11;nan
46408;BME280;32110;45.724;21.276;2023-08-01T08:44:15;99902.28;;;24.18;nan
46408;BME280;32110;45.724;21.276;2023-08-01T08:46:42;99898.75;;;24.27;nan
46408;BME280;32110;45.724;21.276;2023-08-01T08:49:11;99894.06;;;24.36;nan
46408;BME280;32110;45.724;21.276;2023-08-01T08:51:37;99916.66;;;24.44;nan
46408;BME280;32110;45.724;21.276;2023-08-01T08:54:04;99881.94;;;24.51;nan
46408;BME280;32110;45.724;21.276;2023-08-01T08:56:31;99867.06;;;24.66;nan
46408;BME280;32110;45.724;21.276;2023-08-01T08:58:58;99849.91;;;24.70;nan
46408;BME280;32110;45.724;21.276;2023-08-01T09:01:24;99912.75;;;24.74;nan
46408;BME280;32110;45.724;21.276;2023-08-01T09:03:49;99848.16;;;24.87;nan
46408;BME280;32110;45.724;21.276;2023-08-01T09:06:17;99856.94;;;24.96;nan
46408;BME280;32110;45.724;21.276;2023-08-01T09:11:27;99863.22;;;25.12;nan
46408;BME280;32110;45.724;21.276;2023-08-01T09:13:53;99854.63;;;25.19;nan
46408;BME280;32110;45.724;21.276;2023-08-01T09:16:19;99853.50;;;25.20;nan
46408;BME280;32110;45.724;21.276;2023-08-01T09:18:49;99859.56;;;25.29;nan
46408;BME280;32110;45.724;21.276;2023-08-01T09:21:18;99887.28;;;25.30;nan
46408;BME280;32110;45.724;21.276;2023-08-01T09:23:43;99800.72;;;25.31;nan
46408;BME280;32110;45.724;21.276;2023-08-01T09:26:16;99852.25;;;25.42;nan
46408;BME280;32110;45.724;21.276;2023-08-01T09:28:42;99835.50;;;25.49;nan
46408;BME280;32110;45.724;21.276;2023-08-01T09:31:10;99836.41;;;25.53;nan
46408;BME280;32110;45.724;21.276;2023-08-01T09:33:40;99805.06;;;25.60;nan
46408;BME280;32110;45.724;21.276;2023-08-01T09:36:07;99792.03;;;25.62;nan
46408;BME280;32110;45.724;21.276;2023-08-01T09:38:37;99805.59;;;25.66;nan
46408;BME280;32110;45.724;21.276;2023-08-01T09:41:03;99847.47;;;25.76;nan
46408;BME280;32110;45.724;21.276;2023-08-01T09:43:36;99844.22;;;25.82;nan
46408;BME280;32110;45.724;21.276;2023-08-01T09:46:02;99837.06;;;25.86;nan
46408;BME280;32110;45.724;21.276;2023-08-01T09:48:29;99838.94;;;25.98;nan
46408;BME280;32110;45.724;21.276;2023-08-01T09:53:35;99823.66;;;26.18;nan
46408;BME280;32110;45.724;21.276;2023-08-01T09:56:01;99830.16;;;26.29;nan
46408;BME280;32110;45.724;21.276;2023-08-01T09:58:32;99823.72;;;26.34;nan
46408;BME280;32110;45.724;21.276;2023-08-01T10:00:59;99815.63;;;26.34;nan
46408;BME280;32110;45.724;21.276;2023-08-01T10:03:27;99813.53;;;26.43;nan
46408;BME280;32110;45.724;21.276;2023-08-01T10:05:53;99821.41;;;26.48;nan
46408;BME280;32110;45.724;21.276;2023-08-01T10:08:20;99803.72;;;26.51;nan
46408;BME280;32110;45.724;21.276;2023-08-01T10:10:47;99796.94;;;26.57;nan
46408;BME280;32110;45.724;21.276;2023-08-01T10:13:13;99798.72;;;26.65;nan
46408;BME280;32110;45.724;21.276;2023-08-01T10:15:39;99793.47;;;26.72;nan
46408;BME280;32110;45.724;21.276;2023-08-01T10:18:04;99776.47;;;26.72;nan
46408;BME280;32110;45.724;21.276;2023-08-01T10:20:30;99784.91;;;26.86;nan
46408;BME280;32110;45.724;21.276;2023-08-01T10:22:56;99780.84;;;26.92;nan
46408;BME280;32110;45.724;21.276;2023-08-01T10:25:23;99782.31;;;26.90;nan
46408;BME280;32110;45.724;21.276;2023-08-01T10:28:02;99779.69;;;26.93;nan
46408;BME280;32110;45.724;21.276;2023-08-01T10:30:29;99779.44;;;26.99;nan
46408;BME280;32110;45.724;21.276;2023-08-01T10:32:59;99775.75;;;27.07;nan
46408;BME280;32110;45.724;21.276;2023-08-01T10:35:38;99774.78;;;27.15;nan
46408;BME280;32110;45.724;21.276;2023-08-01T10:38:10;99774.09;;;27.18;nan
46408;BME280;32110;45.724;21.276;2023-08-01T10:40:41;99755.69;;;27.24;nan
46408;BME280;32110;45.724;21.276;2023-08-01T10:43:21;99759.94;;;27.41;nan
46408;BME280;32110;45.724;21.276;2023-08-01T10:45:47;99760.00;;;27.44;nan
46408;BME280;32110;45.724;21.276;2023-08-01T10:48:12;99757.03;;;27.49;nan
46408;BME280;32110;45.724;21.276;2023-08-01T10:50:39;99765.28;;;27.56;nan
46408;BME280;32110;45.724;21.276;2023-08-01T10:53:07;99752.25;;;27.62;nan
46408;BME280;32110;45.724;21.276;2023-08-01T10:55:45;99735.69;;;27.64;nan
46408;BME280;32110;45.724;21.276;2023-08-01T10:58:11;99750.56;;;27.73;nan
46408;BME280;32110;45.724;21.276;2023-08-01T11:00:36;99741.22;;;27.71;nan
46408;BME280;32110;45.724;21.276;2023-08-01T11:03:02;99733.13;;;27.71;nan
46408;BME280;32110;45.724;21.276;2023-08-01T11:05:28;99736.13;;;27.85;nan
46408;BME280;32110;45.724;21.276;2023-08-01T11:07:59;99719.47;;;27.83;nan
46408;BME280;32110;45.724;21.276;2023-08-01T11:10:26;99723.06;;;27.91;nan
46408;BME280;32110;45.724;21.276;2023-08-01T11:12:52;99719.66;;;27.94;nan
46408;BME280;32110;45.724;21.276;2023-08-01T11:15:21;99738.16;;;28.11;nan
46408;BME280;32110;45.724;21.276;2023-08-01T11:17:52;99722.69;;;28.12;nan
46408;BME280;32110;45.724;21.276;2023-08-01T11:20:19;99709.22;;;28.15;nan
46408;BME280;32110;45.724;21.276;2023-08-01T11:22:57;99724.88;;;28.26;nan
46408;BME280;32110;45.724;21.276;2023-08-01T11:25:40;99721.78;;;28.27;nan
46408;BME280;32110;45.724;21.276;2023-08-01T11:28:09;99721.88;;;28.31;nan
46408;BME280;32110;45.724;21.276;2023-08-01T11:30:35;99700.44;;;28.22;nan
46408;BME280;32110;45.724;21.276;2023-08-01T11:33:01;99698.19;;;28.28;nan
46408;BME280;32110;45.724;21.276;2023-08-01T11:35:29;99687.75;;;28.26;nan
46408;BME280;32110;45.724;21.276;2023-08-01T11:37:55;99707.25;;;28.35;nan
46408;BME280;32110;45.724;21.276;2023-08-01T11:40:22;99708.44;;;28.38;nan
46408;BME280;32110;45.724;21.276;2023-08-01T11:42:51;99701.13;;;28.42;nan
46408;BME280;32110;45.724;21.276;2023-08-01T11:45:21;99682.50;;;28.37;nan
46408;BME280;32110;45.724;21.276;2023-08-01T11:47:47;99696.34;;;28.55;nan
46408;BME280;32110;45.724;21.276;2023-08-01T11:50:13;99689.78;;;28.56;nan
46408;BME280;32110;45.724;21.276;2023-08-01T11:52:39;99687.19;;;28.63;nan
46408;BME280;32110;45.724;21.276;2023-08-01T11:55:05;99678.34;;;28.66;nan
46408;BME280;32110;45.724;21.276;2023-08-01T11:57:30;99678.38;;;28.70;nan
46408;BME280;32110;45.724;21.276;2023-08-01T11:59:56;99681.25;;;28.80;nan
46408;BME280;32110;45.724;21.276;2023-08-01T12:04:48;99680.63;;;28.91;nan
46408;BME280;32110;45.724;21.276;2023-08-01T12:07:15;99672.84;;;28.89;nan
46408;BME280;32110;45.724;21.276;2023-08-01T12:09:41;99670.19;;;28.93;nan
46408;BME280;32110;45.724;21.276;2023-08-01T12:12:08;99656.59;;;28.89;nan
46408;BME280;32110;45.724;21.276;2023-08-01T12:14:33;99660.66;;;29.02;nan
46408;BME280;32110;45.724;21.276;2023-08-01T12:16:59;99666.09;;;29.06;nan
46408;BME280;32110;45.724;21.276;2023-08-01T12:19:24;99657.19;;;29.05;nan
46408;BME280;32110;45.724;21.276;2023-08-01T12:21:50;99667.41;;;29.16;nan
46408;BME280;32110;45.724;21.276;2023-08-01T12:24:15;99668.25;;;29.20;nan
46408;BME280;32110;45.724;21.276;2023-08-01T12:26:40;99661.56;;;29.14;nan
46408;BME280;32110;45.724;21.276;2023-08-01T12:29:06;99656.63;;;29.19;nan
46408;BME280;32110;45.724;21.276;2023-08-01T12:31:34;99638.00;;;29.18;nan
46408;BME280;32110;45.724;21.276;2023-08-01T12:33:59;99653.69;;;29.35;nan
46408;BME280;32110;45.724;21.276;2023-08-01T12:36:26;99643.31;;;29.41;nan
46408;BME280;32110;45.724;21.276;2023-08-01T12:38:52;99639.50;;;29.45;nan
46408;BME280;32110;45.724;21.276;2023-08-01T12:41:17;99630.56;;;29.45;nan
46408;BME280;32110;45.724;21.276;2023-08-01T12:43:42;99634.47;;;29.47;nan
46408;BME280;32110;45.724;21.276;2023-08-01T12:46:08;99634.88;;;29.50;nan
46408;BME280;32110;45.724;21.276;2023-08-01T12:48:33;99624.34;;;29.44;nan
46408;BME280;32110;45.724;21.276;2023-08-01T12:50:59;99610.78;;;29.41;nan
46408;BME280;32110;45.724;21.276;2023-08-01T12:53:24;99605.75;;;29.43;nan
46408;BME280;32110;45.724;21.276;2023-08-01T12:55:50;99619.06;;;29.55;nan
46408;BME280;32110;45.724;21.276;2023-08-01T12:58:16;99614.41;;;29.56;nan
46408;BME280;32110;45.724;21.276;2023-08-01T13:00:43;99599.66;;;29.53;nan
46408;BME280;32110;45.724;21.276;2023-08-01T13:03:09;99608.28;;;29.62;nan
46408;BME280;32110;45.724;21.276;2023-08-01T13:05:35;99607.53;;;29.65;nan
46408;BME280;32110;45.724;21.276;2023-08-01T13:08:02;99605.66;;;29.70;nan
46408;BME280;32110;45.724;21.276;2023-08-01T13:10:31;99606.44;;;29.74;nan
46408;BME280;32110;45.724;21.276;2023-08-01T13:12:57;99599.53;;;29.80;nan
46408;BME280;32110;45.724;21.276;2023-08-01T13:15:24;99582.91;;;29.81;nan
46408;BME280;32110;45.724;21.276;2023-08-01T13:17:50;99582.91;;;29.81;nan
46408;BME280;32110;45.724;21.276;2023-08-01T13:20:16;99583.28;;;29.83;nan
46408;BME280;32110;45.724;21.276;2023-08-01T13:22:42;99584.44;;;29.82;nan
46408;BME280;32110;45.724;21.276;2023-08-01T13:25:08;99573.94;;;29.77;nan
46408;BME280;32110;45.724;21.276;2023-08-01T13:27:34;99560.78;;;29.79;nan
46408;BME280;32110;45.724;21.276;2023-08-01T13:30:01;99562.72;;;29.82;nan
46408;BME280;32110;45.724;21.276;2023-08-01T13:32:27;99549.16;;;29.82;nan
46408;BME280;32110;45.724;21.276;2023-08-01T13:34:52;99550.69;;;29.80;nan
46408;BME280;32110;45.724;21.276;2023-08-01T13:37:18;99539.47;;;29.85;nan